ADDS METAR Data INFO
IDs: Format: Raw Decoded Include TAF

Data at: 1810 UTC 18 Feb 2018

KRWV 181755Z AUTO 15006KT 2 1/2SM BR OVC002 16/15 A3011 RMK AO2 T01560154 10157 20111
KRWV 181735Z AUTO 13005KT 3/4SM BR OVC002 15/15 A3012 RMK AO2 T01480146
KRWV 181715Z AUTO 13003KT 1/2SM FG OVC003 14/14 A3014 RMK AO2 T01420140
KRWV 181655Z AUTO 14004KT 3/4SM BR OVC003 14/14 A3015 RMK AO2 T01380136
KRWV 181635Z AUTO 12003KT 1SM BR OVC003 13/13 A3015 RMK AO2 T01330131
KRWV 181615Z AUTO 07003KT 1SM BR OVC003 13/13 A3015 RMK AO2 T01320130
KRWV 181555Z AUTO 08004KT 1SM BR OVC003 13/13 A3015 RMK AO2 T01280126
KRWV 181535Z AUTO 06003KT 1 1/4SM BR OVC003 12/12 A3015 RMK AO2 T01250123
KRWV 181515Z AUTO 00000KT 3/4SM BR OVC003 12/12 A3015 RMK AO2 T01240122
KRWV 181455Z AUTO 09003KT 3/4SM BR OVC003 12/12 A3013 RMK AO2 T01210119
KRWV 181435Z AUTO 08004KT 3/4SM BR OVC003 12/12 A3013 RMK AO2 T01190117
KRWV 181415Z AUTO 00000KT 3/4SM BR OVC003 12/12 A3013 RMK AO2 T01170115
KRWV 181355Z AUTO 08003KT 3/4SM BR OVC003 11/11 A3012 RMK AO2 T01150113
KRWV 181335Z AUTO 06003KT 3/4SM BR OVC003 11/11 A3012 RMK AO2 T01140112
KRWV 181315Z AUTO 05003KT 1 1/4SM BR OVC003 11/11 A3012 RMK AO2 T01130111
KRWV 181255Z AUTO 07003KT 2 1/2SM BR OVC003 11/11 A3012 RMK AO2 T01120110
KRWV 181235Z AUTO 07003KT 3 1/2SM BR OVC003 11/11 A3012 RMK AO2 T01120109
KRWV 181215Z AUTO 05003KT 5SM BR OVC003 11/11 A3012 RMK AO2 T01120109
KRWV 181155Z AUTO 00000KT 4SM BR OVC003 11/11 A3012 RMK AO2 P0001 T01110108 10113 20108 60005 70006
KRWV 181135Z AUTO 07003KT 2 1/2SM -DZ BR OVC003 11/11 A3012 RMK AO2 P0001 T01110108
KRWV 181115Z AUTO 05003KT 2 1/2SM DZ BR OVC003 11/11 A3012 RMK AO2 T01100107
KRWV 181055Z AUTO 04003KT 5SM BR OVC003 11/11 A3012 RMK AO2 T01100107
KRWV 181035Z AUTO 03003KT 5SM BR OVC003 11/11 A3012 RMK AO2 T01090106
KRWV 181015Z AUTO 05004KT 4SM BR OVC003 11/11 A3012 RMK AO2 T01090106
KRWV 180955Z AUTO 04004KT 5SM BR OVC003 11/11 A3012 RMK AO2 P0001 T01090106
KRWV 180935Z AUTO 03005KT 4SM -DZ BR OVC003 11/10 A3013 RMK AO2 P0001 T01080105
KRWV 180915Z AUTO 03005KT 2 1/2SM -DZ BR OVC003 11/10 A3013 RMK AO2 P0001 T01080105
KRWV 180855Z AUTO 03006KT 2SM -DZ BR OVC003 11/10 A3013 RMK AO2 P0001 T01080104 60003
KRWV 180835Z AUTO 03005KT 2 1/2SM -RA BR OVC003 11/10 A3014 RMK AO2 P0001
KRWV 180815Z AUTO 04006KT 3SM -RA BR OVC003 11/10 A3015 RMK AO2 P0001 T01080104
KRWV 180755Z AUTO 02005KT 2SM -RA BR OVC003 11/10 A3015 RMK AO2 P0002 T01080104
KRWV 180735Z AUTO 03004KT 2 1/2SM RA BR OVC005 11/10 A3016 RMK AO2 T01080103
KRWV 180715Z AUTO 04004KT 2 1/2SM BR BKN005 OVC013 11/10 A3016 RMK AO2 T01090103
KRWV 180655Z AUTO 03003KT 4SM BR SCT005 SCT010 OVC015 11/10 A3016 RMK AO2 T01100104
KRWV 180635Z AUTO 04005KT 3SM BR BKN007 OVC017 11/10 A3016 RMK AO2 T01100103
KRWV 180615Z AUTO 04005KT 5SM BR BKN007 OVC017 11/10 A3016 RMK AO2 T01110101
KRWV 180555Z AUTO 03006KT 10SM SCT009 OVC019 11/10 A3017 RMK AO2 T01120101 10114 20107
KRWV 180535Z AUTO 02006KT 10SM OVC019 11/10 A3017 RMK AO2 T01130101
KRWV 180515Z AUTO 02003KT 10SM OVC021 11/10 A3018 RMK AO2 T01140102
KRWV 180455Z AUTO 03005KT 10SM OVC023 11/10 A3017 RMK AO2 T01130102
KRWV 180435Z AUTO 04004KT 10SM OVC025 11/10 A3018 RMK AO2 T01130102
KRWV 180415Z AUTO 03005KT 10SM BKN022 OVC029 11/10 A3017 RMK AO2 T01130102
KRWV 180355Z AUTO 04005KT 7SM SCT022 OVC029 11/10 A3018 RMK AO2 T01120101
KRWV 180335Z AUTO 04004KT 7SM SCT022 OVC029 11/10 A3018 RMK AO2 T01120103
KRWV 180315Z AUTO 03004KT 7SM BR OVC022 11/10 A3018 RMK AO2 T01110103
KRWV 180255Z AUTO 02004KT 5SM BR SCT004 OVC024 11/10 A3018 RMK AO2 T01100104
KRWV 180235Z AUTO 01004KT 5SM BR BKN004 OVC024 11/10 A3018 RMK AO2 T01100104
KRWV 180215Z AUTO 01005KT 5SM BR BKN004 OVC024 11/10 A3018 RMK AO2 T01110105
KRWV 180155Z AUTO 04003KT 5SM BR BKN004 OVC024 11/11 A3018 RMK AO2 T01110105
KRWV 180135Z AUTO 02003KT 5SM BR SCT004 OVC024 11/10 A3017 RMK AO2 T01100105
KRWV 180115Z AUTO 00000KT 7SM BR SCT003 OVC022 11/10 A3017 RMK AO2 T01090104
KRWV 180055Z AUTO 04003KT 5SM BR BKN003 BKN011 OVC022 11/10 A3016 RMK AO2 T01080103
KRWV 180035Z AUTO 03004KT 5SM BR OVC003 11/10 A3016 RMK AO2 T01080103
KRWV 180015Z AUTO 06003KT 2 1/2SM -DZ BR OVC003 11/10 A3016 RMK AO2 T01070102
KRWV 172355Z AUTO 06003KT 2SM -RA BR OVC003 11/10 A3015 RMK AO2 P0001 T01070102 10165 20106 401870081 60001
KRWV 172335Z AUTO 05003KT 1 1/4SM -DZ BR BKN005 OVC011 11/10 A3015 RMK AO2 P0001 T01060100
KRWV 172315Z AUTO 00000KT 1 3/4SM +DZ BR SCT005 OVC011 11/10 A3014 RMK AO2 T01080099
KRWV 172255Z AUTO 02004KT 3 1/2SM -DZ BR SCT011 OVC023 11/09 A3014 RMK AO2 T01120095
KRWV 172235Z AUTO 06003KT 3 1/2SM RA OVC019 12/09 A3013 RMK AO2 T01200090
KRWV 172215Z AUTO 04005KT 10SM OVC019 13/08 A3013 RMK AO2
KRWV 172155Z AUTO 03004KT 10SM OVC019 13/08 A3013 RMK AO2 T01290082
KRWV 172135Z AUTO 03006KT 10SM OVC021 13/08 A3013 RMK AO2 T01290081
KRWV 172115Z AUTO 36011G15KT 10SM OVC021 13/08 A3013 RMK AO2 T01310081
KRWV 172055Z AUTO 36009KT 10SM OVC021 14/09 A3012 RMK AO2 T01350086
KRWV 172035Z AUTO 01009KT 10SM OVC021 14/09 A3013 RMK AO2 T01380086
KRWV 172015Z AUTO 36008KT 10SM OVC021 14/09 A3012 RMK AO2 T01440086
KRWV 171955Z AUTO 35009KT 10SM OVC021 16/10 A3012 RMK AO2 T01590095
KRWV 171935Z AUTO 35009KT 10SM OVC021 16/09 A3011 RMK AO2 T01600094
KRWV 171915Z AUTO 03006KT 10SM BKN021 OVC090 16/10 A3011 RMK AO2 T01620095
KRWV 171855Z AUTO 36003KT 10SM SCT018 BKN024 OVC090 16/09 A3012 RMK AO2 T01560093
KRWV 171835Z AUTO 36006KT 10SM BKN018 OVC090 15/09 A3012 RMK AO2 T01460091
KRWV 171815Z AUTO 03005KT 10SM SCT016 SCT043 BKN090 15/09 A3013 RMK AO2 T01470089
KRWV 171755Z AUTO 35006KT 10SM SCT090 13/09 A3014 RMK AO2 T01320087 10137 20081
KRWV 171735Z AUTO 14007KT 10SM SCT045 BKN090 13/08 A3012 RMK AO2 T01270079
KRWV 171715Z AUTO 15013KT 10SM SCT015 BKN047 BKN090 10/07 A3013 RMK AO2 T01020072
KRWV 171655Z AUTO 14010KT 10SM BKN013 OVC047 09/06 A3016 RMK AO2 T00890064
KRWV 171635Z AUTO 36009KT 10SM OVC009 09/07 A3020 RMK AO2 T00860065
KRWV 171615Z AUTO 36012KT 5SM -RA BR OVC009 09/06 A3020 RMK AO2 T00850065
KRWV 171555Z AUTO 36007KT 7SM BR OVC011 09/07 A3019 RMK AO2 T00910067
KRWV 171535Z AUTO 34010KT 7SM BR OVC012 09/07 A3018 RMK AO2 T00910067
KRWV 171515Z AUTO 35008KT 10SM OVC014 10/06 A3017 RMK AO2 T00960060
KRWV 171455Z AUTO 35011KT 10SM OVC014 10/05 A3015 RMK AO2 T00980054
KRWV 171435Z AUTO 34013KT 10SM OVC014 10/05 A3015 RMK AO2 T01040050
KRWV 171415Z AUTO 35011KT 10SM OVC014 11/05 A3013 RMK AO2 T01090053
KRWV 171355Z AUTO 35009KT 10SM OVC016 11/06 A3012 RMK AO2 T01100055
KRWV 171335Z AUTO 35009KT 10SM OVC016 11/06 A3011 RMK AO2 T01120061
KRWV 171315Z AUTO 35011KT 10SM OVC016 11/06 A3010 RMK AO2 T01130063
KRWV 171255Z AUTO 35011KT 10SM OVC016 11/06 A3010 RMK AO2 T01140064
KRWV 171235Z AUTO 34011KT 10SM OVC014 12/07 A3010 RMK AO2 T01170074
KRWV 171215Z AUTO 35008KT 10SM -RA OVC014 12/07 A3009 RMK AO2 T01160074
KRWV 171155Z AUTO 35012G16KT 10SM OVC014 12/07 A3009 RMK AO2 T01220072 10137 20122
KRWV 171135Z AUTO 34009KT 10SM OVC014 13/07 A3008 RMK AO2 T01270074
KRWV 171115Z AUTO 34006KT 10SM OVC014 13/08 A3007 RMK AO2 T01290076
KRWV 171055Z AUTO 35004KT 10SM OVC014 13/07 A3005 RMK AO2 T01280074
KRWV 171035Z AUTO 36005KT 10SM OVC014 13/07 A3004 RMK AO2 T01300075
KRWV 171015Z AUTO 35005KT 10SM OVC016 13/07 A3004 RMK AO2 T01290073
KRWV 170955Z AUTO 34004KT 10SM BKN018 OVC041 13/07 A3004 RMK AO2 T01290072
KRWV 170935Z AUTO 00000KT 10SM SCT018 OVC043 13/07 A3003 RMK AO2 T01270072
KRWV 170915Z AUTO 00000KT 10SM SCT018 OVC041 13/07 A3003 RMK AO2 T01260071
KRWV 170855Z AUTO 00000KT 10SM SCT018 OVC041 13/07 A3003 RMK AO2 T01250070
KRWV 170835Z AUTO 10003KT 10SM BKN020 BKN036 OVC043 13/07 A3005 RMK AO2 T01250068
KRWV 170815Z AUTO 10003KT 10SM BKN019 BKN026 OVC037 13/07 A3006 RMK AO2 T01280068
KRWV 170755Z AUTO 01003KT 10SM BKN017 13/07 A3008 RMK AO2 T01280065
KRWV 170735Z AUTO 03004KT 10SM BKN017 13/06 A3008 RMK AO2 T01290063
KRWV 170715Z AUTO 36003KT 10SM OVC019 13/06 A3010 RMK AO2 T01310065
KRWV 170655Z AUTO 03004KT 10SM OVC021 13/06 A3010 RMK AO2 T01320063
KRWV 170635Z AUTO 03005KT 10SM OVC021 13/07 A3010 RMK AO2 T01350065
KRWV 170615Z AUTO 03004KT 10SM OVC021 14/06 A3011 RMK AO2 T01360064